Time;durP1;ratioP1;P1;durP2;ratioP2;P2;SDS_P1;SDS_P2;PMS_P1;PMS_P2;Temp;Humidity;BMP_temperature;BMP_pressure;BME280_temperature;BME280_humidity;BME280_pressure;Samples;Min_cycle;Max_cycle;Signal;HPM_P1;HPM_P2
2022/03/12 00:00:42;;;;;;;21.7;13.9;;;;;;;2.96;58.52148;938.005;;;;
2022/03/12 00:03:04;;;;;;;23;14.7;;;;;;;3.09;56.89063;937.9606;;;;
2022/03/12 00:05:33;;;;;;;21.6;14.3;;;;;;;3.15;58.01074;938.0172;;;;
2022/03/12 00:07:55;;;;;;;24.4;15.2;;;;;;;2.81;59.47754;938.0122;;;;
2022/03/12 00:10:22;;;;;;;20.3;14.1;;;;;;;2.83;59.17676;938.0388;;;;
2022/03/12 00:12:45;;;;;;;22.2;14.1;;;;;;;2.83;59.08789;938.1213;;;;
2022/03/12 00:15:11;;;;;;;22.2;13.8;;;;;;;2.74;59.23145;938.0887;;;;
2022/03/12 00:17:35;;;;;;;22.9;14.7;;;;;;;2.86;57.44336;938.1736;;;;
2022/03/12 00:20:02;;;;;;;22.9;13.6;;;;;;;3.39;54.52734;938.2141;;;;
2022/03/12 00:22:28;;;;;;;19.8;13.9;;;;;;;3.47;55.81738;938.1699;;;;
2022/03/12 00:24:51;;;;;;;23;13.9;;;;;;;3.63;54.78223;938.2374;;;;
2022/03/12 00:27:16;;;;;;;20.4;13.2;;;;;;;3.58;54.40625;938.1024;;;;
2022/03/12 00:29:41;;;;;;;19.9;11.9;;;;;;;3.93;52.22461;938.1393;;;;
2022/03/12 00:32:07;;;;;;;16.2;11.5;;;;;;;4.04;52.14844;938.2388;;;;
2022/03/12 00:34:31;;;;;;;18.7;12.6;;;;;;;4.26;50.50977;938.1635;;;;
2022/03/12 00:36:56;;;;;;;19.1;12.1;;;;;;;4.38;50.26465;938.1476;;;;
2022/03/12 00:39:21;;;;;;;18.1;12.5;;;;;;;4.39;51.43652;938.2133;;;;
2022/03/12 00:41:47;;;;;;;20;13;;;;;;;4.4;51.57227;938.2681;;;;
2022/03/12 00:44:12;;;;;;;20.8;12.5;;;;;;;4.36;50.26367;938.3;;;;
2022/03/12 00:46:37;;;;;;;15.8;11.4;;;;;;;4.44;49.86621;938.3303;;;;
2022/03/12 00:49:01;;;;;;;18.2;11.5;;;;;;;4.55;48.95605;938.3039;;;;
2022/03/12 00:51:27;;;;;;;18.4;12.3;;;;;;;4.63;48.8418;938.3092;;;;
2022/03/12 00:53:52;;;;;;;17.6;11.9;;;;;;;4.58;48.92578;938.2986;;;;
2022/03/12 00:56:17;;;;;;;19.5;12.6;;;;;;;4.41;50.03223;938.4185;;;;
2022/03/12 00:58:45;;;;;;;19.1;12.7;;;;;;;4.53;50.34863;938.5011;;;;
2022/03/12 01:01:07;;;;;;;19.6;12.3;;;;;;;4.46;50.07129;938.3719;;;;
2022/03/12 01:03:32;;;;;;;20.1;12.8;;;;;;;4.57;49.55566;938.508;;;;
2022/03/12 01:05:57;;;;;;;20.1;13.1;;;;;;;4.46;49.91406;938.3356;;;;
2022/03/12 01:08:23;;;;;;;19.2;13.2;;;;;;;4.48;49.96191;938.4034;;;;
2022/03/12 01:10:47;;;;;;;19.2;12.3;;;;;;;4.48;50.42383;938.4138;;;;
2022/03/12 01:13:12;;;;;;;20.9;13;;;;;;;4.53;50.24902;938.4199;;;;
2022/03/12 01:15:38;;;;;;;20.4;12.8;;;;;;;4.48;50.5459;938.367;;;;
2022/03/12 01:18:03;;;;;;;19.2;12.3;;;;;;;4.5;50.1543;938.4238;;;;
2022/03/12 01:20:28;;;;;;;18.3;11.9;;;;;;;4.42;50.31445;938.4575;;;;
2022/03/12 01:22:53;;;;;;;21.6;13.3;;;;;;;4.35;51.32031;938.4006;;;;
2022/03/12 01:25:18;;;;;;;17.5;12.3;;;;;;;4.35;51.60156;938.3974;;;;
2022/03/12 01:27:43;;;;;;;19.1;13;;;;;;;4.3;52.0791;938.3958;;;;
2022/03/12 01:30:08;;;;;;;21.4;12.7;;;;;;;4.16;51.80371;938.5051;;;;
2022/03/12 01:32:33;;;;;;;39.4;15.1;;;;;;;3.9;52.50195;938.5107;;;;
2022/03/12 01:34:58;;;;;;;20.7;12.7;;;;;;;3.85;52.52832;938.5137;;;;
2022/03/12 01:37:24;;;;;;;20.7;13.1;;;;;;;3.87;52.55371;938.497;;;;
2022/03/12 01:39:49;;;;;;;20.6;13.9;;;;;;;3.85;53.32813;938.5823;;;;
2022/03/12 01:42:14;;;;;;;22.2;14.9;;;;;;;3.52;55.10547;938.4535;;;;
2022/03/12 01:44:39;;;;;;;21;14.3;;;;;;;3.21;56.45801;938.5726;;;;
2022/03/12 01:47:05;;;;;;;24;14.8;;;;;;;3.02;57.22852;938.6077;;;;
2022/03/12 01:49:29;;;;;;;25.1;14.8;;;;;;;2.93;57.94434;938.6172;;;;
2022/03/12 01:51:54;;;;;;;24.1;15.8;;;;;;;2.89;58.74805;938.6221;;;;
2022/03/12 01:54:19;;;;;;;25.2;16.3;;;;;;;2.74;59.81445;938.7151;;;;
2022/03/12 01:56:45;;;;;;;23.6;15;;;;;;;2.62;60.24707;938.7167;;;;
2022/03/12 01:59:09;;;;;;;25.7;16.5;;;;;;;2.68;61.375;938.7764;;;;
2022/03/12 02:01:35;;;;;;;24.3;15.4;;;;;;;2.74;60.93652;938.7819;;;;
2022/03/12 02:04:00;;;;;;;25;16.4;;;;;;;2.75;60.66797;938.7816;;;;
2022/03/12 02:06:25;;;;;;;25;16.5;;;;;;;2.71;60.5957;938.7477;;;;
2022/03/12 02:08:52;;;;;;;27.2;16.4;;;;;;;2.64;60.40527;938.7386;;;;
2022/03/12 02:11:20;;;;;;;25.1;15.8;;;;;;;2.73;60.375;938.678;;;;
2022/03/12 02:13:40;;;;;;;26;15.8;;;;;;;2.61;61.15332;938.7628;;;;
2022/03/12 02:16:05;;;;;;;25;15.8;;;;;;;2.41;61.78418;938.7253;;;;
2022/03/12 02:18:30;;;;;;;23.4;15.7;;;;;;;2.42;61.71875;938.6384;;;;
2022/03/12 02:20:55;;;;;;;21.1;14.9;;;;;;;2.32;62.02832;938.8343;;;;
2022/03/12 02:23:20;;;;;;;22.7;15.4;;;;;;;2.21;62.32617;938.8073;;;;
2022/03/12 02:25:46;;;;;;;23.2;15.3;;;;;;;2.29;61.80078;938.8153;;;;
2022/03/12 02:28:11;;;;;;;24.8;15.3;;;;;;;2.34;61.84082;938.7936;;;;
2022/03/12 02:30:41;;;;;;;23.7;15.4;;;;;;;2.25;62.61328;938.8192;;;;
2022/03/12 02:33:01;;;;;;;24.3;16.2;;;;;;;2.3;62.42969;938.8061;;;;
2022/03/12 02:35:27;;;;;;;24.7;16.4;;;;;;;2.31;62.30762;938.815;;;;
2022/03/12 02:37:52;;;;;;;24.8;15.7;;;;;;;2.27;62.16797;938.7658;;;;
2022/03/12 02:40:16;;;;;;;25.3;15.9;;;;;;;2.31;62.21777;938.8089;;;;
2022/03/12 02:42:41;;;;;;;24.4;15.5;;;;;;;2.4;62.1875;938.784;;;;
2022/03/12 02:45:07;;;;;;;25.2;16.2;;;;;;;2.35;61.92188;938.765;;;;
2022/03/12 02:47:32;;;;;;;24.7;15;;;;;;;2.35;61.78809;938.7911;;;;
2022/03/12 02:49:58;;;;;;;23.8;15.2;;;;;;;2.29;62.22754;938.8712;;;;
2022/03/12 02:52:22;;;;;;;25;15.5;;;;;;;2.3;62.16211;938.8424;;;;
2022/03/12 02:54:47;;;;;;;24.2;15.2;;;;;;;2.34;62.24414;938.821;;;;
2022/03/12 02:57:12;;;;;;;22.5;14.3;;;;;;;2.36;62.02246;938.8636;;;;
2022/03/12 02:59:38;;;;;;;24.2;15.6;;;;;;;2.36;62.33789;938.8967;;;;
2022/03/12 03:02:03;;;;;;;26.5;16.2;;;;;;;2.44;62.06934;938.9177;;;;
2022/03/12 03:04:29;;;;;;;24.9;15.3;;;;;;;2.46;61.81445;938.9324;;;;
2022/03/12 03:06:53;;;;;;;24.6;15.9;;;;;;;2.41;62.44531;938.9294;;;;
2022/03/12 03:09:18;;;;;;;24.5;16;;;;;;;2.28;63.13184;938.9067;;;;
2022/03/12 03:11:44;;;;;;;23.2;15.5;;;;;;;2.22;63.68262;938.9347;;;;
2022/03/12 03:14:12;;;;;;;24;14.9;;;;;;;2.28;62.28125;938.8856;;;;
2022/03/12 03:16:33;;;;;;;23.6;15.6;;;;;;;2.48;62.22168;938.8311;;;;
2022/03/12 03:18:58;;;;;;;22.3;15;;;;;;;2.49;62.38965;938.8981;;;;
2022/03/12 03:21:23;;;;;;;22.4;14.8;;;;;;;2.53;62.46387;938.7875;;;;
2022/03/12 03:23:48;;;;;;;23.9;15.1;;;;;;;2.6;62.28223;938.824;;;;
2022/03/12 03:26:14;;;;;;;19.7;13.4;;;;;;;2.68;60.79395;938.837;;;;
2022/03/12 03:28:39;;;;;;;22;14.5;;;;;;;2.7;61.26758;938.8111;;;;
2022/03/12 03:31:04;;;;;;;21.3;14.2;;;;;;;2.78;61.00879;938.8304;;;;
2022/03/12 03:33:29;;;;;;;22.5;14.6;;;;;;;2.83;61.02637;938.7431;;;;
2022/03/12 03:35:54;;;;;;;21.9;14.4;;;;;;;2.78;61.05371;938.7597;;;;
2022/03/12 03:38:19;;;;;;;21.2;14.5;;;;;;;2.71;61.45898;938.8445;;;;
2022/03/12 03:40:44;;;;;;;20.9;14.7;;;;;;;2.7;61.7041;938.8292;;;;
2022/03/12 03:43:12;;;;;;;25.3;15.9;;;;;;;2.64;62.06543;938.7097;;;;
2022/03/12 03:45:34;;;;;;;21.8;14.6;;;;;;;2.63;61.88477;938.8523;;;;
2022/03/12 03:48:00;;;;;;;25.2;14.7;;;;;;;2.69;61.58984;938.7296;;;;
2022/03/12 03:50:26;;;;;;;23.9;15.1;;;;;;;2.77;61.55664;938.8422;;;;
2022/03/12 03:52:50;;;;;;;23.6;15.8;;;;;;;2.7;61.51367;938.7875;;;;
2022/03/12 03:55:15;;;;;;;23.5;15.5;;;;;;;2.7;61.5127;938.8093;;;;
2022/03/12 03:57:40;;;;;;;22.7;15.5;;;;;;;2.78;61.24512;938.8024;;;;
2022/03/12 04:02:31;;;;;;;23.1;15;;;;;;;3.01;59.66113;938.7291;;;;
2022/03/12 04:04:56;;;;;;;24.1;15.2;;;;;;;3.06;59.83691;938.7625;;;;
2022/03/12 04:07:21;;;;;;;24.2;16;;;;;;;2.98;60.16211;938.7953;;;;
2022/03/12 04:09:46;;;;;;;22.9;14.5;;;;;;;3.11;59.10254;938.7856;;;;
2022/03/12 04:12:11;;;;;;;22.6;14.7;;;;;;;3.13;59.60059;938.8077;;;;
2022/03/12 04:14:36;;;;;;;21.5;15.1;;;;;;;2.94;60.83008;938.8142;;;;
2022/03/12 04:17:05;;;;;;;27.6;16.9;;;;;;;2.8;62.37891;938.8423;;;;
2022/03/12 04:19:30;;;;;;;24.1;15.9;;;;;;;2.6;63.32617;938.8472;;;;
2022/03/12 04:21:55;;;;;;;24.1;16.4;;;;;;;2.59;63.43555;938.8513;;;;
2022/03/12 04:24:20;;;;;;;22.9;15.5;;;;;;;2.44;63.8291;938.9089;;;;
2022/03/12 04:26:43;;;;;;;22;15.1;;;;;;;2.4;64.18164;938.9286;;;;
2022/03/12 04:29:08;;;;;;;23.3;15.8;;;;;;;2.26;64.96582;938.9303;;;;
2022/03/12 04:31:32;;;;;;;25.3;15.6;;;;;;;2.25;65.29004;938.9274;;;;
2022/03/12 04:33:57;;;;;;;27.2;16.7;;;;;;;2.31;64.90625;938.9567;;;;
2022/03/12 04:36:22;;;;;;;25.5;16.2;;;;;;;2.33;65.12305;938.9581;;;;
2022/03/12 04:38:49;;;;;;;23.4;15.1;;;;;;;2.39;64.79688;939.0064;;;;
2022/03/12 04:41:13;;;;;;;25.5;16;;;;;;;2.39;64.72656;939.0132;;;;
2022/03/12 04:43:38;;;;;;;24.4;15.6;;;;;;;2.44;64.66895;939.067;;;;
2022/03/12 04:46:03;;;;;;;25.5;16.8;;;;;;;2.47;64.50391;939.0647;;;;
2022/03/12 04:48:28;;;;;;;27.3;16.8;;;;;;;2.57;64.01758;938.9708;;;;
2022/03/12 04:50:54;;;;;;;24;16.1;;;;;;;2.52;64.04297;939.0678;;;;
2022/03/12 04:53:19;;;;;;;26.2;16.8;;;;;;;2.51;63.87207;939.0524;;;;
2022/03/12 04:55:45;;;;;;;27;16.8;;;;;;;2.54;63.90918;939.0731;;;;
2022/03/12 04:58:09;;;;;;;24.8;16.6;;;;;;;2.63;63.63281;939.0466;;;;
2022/03/12 05:00:38;;;;;;;32;18.1;;;;;;;2.66;63.25586;939.0806;;;;
2022/03/12 05:02:59;;;;;;;30.4;18.7;;;;;;;2.7;63.39746;939.1192;;;;
2022/03/12 05:05:24;;;;;;;28.1;17.8;;;;;;;2.64;63.65527;939.1041;;;;
2022/03/12 05:07:49;;;;;;;28.5;17.7;;;;;;;2.54;64.12207;939.1486;;;;
2022/03/12 05:10:16;;;;;;;28.5;18;;;;;;;2.43;64.60059;939.1191;;;;
2022/03/12 05:12:40;;;;;;;36.5;17.5;;;;;;;2.4;64.875;939.2565;;;;
2022/03/12 05:15:05;;;;;;;28.3;16.5;;;;;;;2.27;65.44922;939.1206;;;;
2022/03/12 05:17:30;;;;;;;28.2;17.1;;;;;;;2.27;65.62891;939.1536;;;;
2022/03/12 05:19:55;;;;;;;29.3;18.4;;;;;;;2.31;65.62305;939.2395;;;;
2022/03/12 05:22:20;;;;;;;28.7;17.7;;;;;;;2.4;65.59375;939.2853;;;;
2022/03/12 05:24:45;;;;;;;34.8;17.8;;;;;;;2.43;65.54199;939.2841;;;;
2022/03/12 05:27:12;;;;;;;30.3;17.7;;;;;;;2.49;65.32617;939.3148;;;;
2022/03/12 05:29:37;;;;;;;27;16.7;;;;;;;2.48;65.34863;939.3851;;;;
2022/03/12 05:32:00;;;;;;;33.8;17.9;;;;;;;2.45;65.54395;939.3666;;;;
2022/03/12 05:34:25;;;;;;;37;17.8;;;;;;;2.43;65.59766;939.4033;;;;
2022/03/12 05:36:50;;;;;;;27.1;17.1;;;;;;;2.41;65.77441;939.3864;;;;
2022/03/12 05:39:17;;;;;;;30.1;17.3;;;;;;;2.44;65.72266;939.5101;;;;
2022/03/12 05:41:41;;;;;;;28.4;17.6;;;;;;;2.5;66.10059;939.5012;;;;
2022/03/12 05:44:06;;;;;;;29.5;17.3;;;;;;;2.69;64.96387;939.5708;;;;
2022/03/12 05:46:31;;;;;;;47.8;18.7;;;;;;;2.76;64.43848;939.5808;;;;
2022/03/12 05:48:57;;;;;;;35.2;19;;;;;;;2.65;64.73438;939.6367;;;;
2022/03/12 05:51:21;;;;;;;47.3;27.5;;;;;;;2.59;65.00586;939.668;;;;
2022/03/12 05:53:47;;;;;;;41.1;23.8;;;;;;;2.64;65.34766;939.7212;;;;
2022/03/12 05:56:11;;;;;;;34.7;19.6;;;;;;;2.65;64.15039;939.7317;;;;
2022/03/12 05:58:38;;;;;;;29.9;17.9;;;;;;;2.79;65.0918;939.7393;;;;
2022/03/12 06:01:01;;;;;;;27.6;16.5;;;;;;;2.92;63.66406;939.7335;;;;
2022/03/12 06:03:27;;;;;;;28.6;17.2;;;;;;;2.97;64.16504;939.8072;;;;
2022/03/12 06:05:57;;;;;;;28.5;17.8;;;;;;;3.1;63.55762;939.764;;;;
2022/03/12 06:08:21;;;;;;;28;17.6;;;;;;;3.27;62.93066;939.8345;;;;
2022/03/12 06:10:46;;;;;;;27.2;17.3;;;;;;;3.16;63.26367;939.8444;;;;
2022/03/12 06:13:10;;;;;;;30.9;17.1;;;;;;;3.2;63.78613;939.7867;;;;
2022/03/12 06:15:39;;;;;;;33.3;20.9;;;;;;;3.28;63.4375;939.8563;;;;
2022/03/12 06:17:58;;;;;;;42.1;27.3;;;;;;;3.82;61.88867;939.7414;;;;
2022/03/12 06:20:23;;;;;;;26.8;17.4;;;;;;;4.53;59.14355;939.8164;;;;
2022/03/12 06:22:48;;;;;;;27.2;16.9;;;;;;;5.04;57.13965;939.8864;;;;
2022/03/12 06:25:13;;;;;;;26.2;15.7;;;;;;;6.04;53.65918;939.9014;;;;
2022/03/12 06:27:39;;;;;;;24.1;15.7;;;;;;;6.06;53.98828;939.9525;;;;
2022/03/12 06:30:04;;;;;;;26.1;14.3;;;;;;;6.51;52.77832;940.0535;;;;
2022/03/12 06:32:31;;;;;;;26.7;15.8;;;;;;;6.45;53.43848;940.0273;;;;
2022/03/12 06:34:54;;;;;;;30.1;19.4;;;;;;;6.49;52.78809;940.0286;;;;
2022/03/12 06:37:19;;;;;;;30.9;21.1;;;;;;;6.72;52.22754;940.0223;;;;
2022/03/12 06:39:44;;;;;;;31.9;19.4;;;;;;;6.48;52.45801;939.9689;;;;
2022/03/12 06:42:09;;;;;;;26.1;16.7;;;;;;;7.03;51.09863;940.0545;;;;
2022/03/12 06:44:37;;;;;;;28.8;17.1;;;;;;;6.59;52.50488;940.0945;;;;
2022/03/12 06:47:00;;;;;;;28.5;15.3;;;;;;;6.59;52.12012;940.0895;;;;
2022/03/12 06:49:25;;;;;;;27.2;15.4;;;;;;;6.79;51.19434;940.1261;;;;
2022/03/12 06:51:50;;;;;;;34;16.2;;;;;;;6.95;50.6582;940.1267;;;;
2022/03/12 06:54:15;;;;;;;32.4;15.2;;;;;;;7.09;50.8457;940.1354;;;;
2022/03/12 06:56:40;;;;;;;32.4;16.9;;;;;;;7.38;50.89063;940.1746;;;;
2022/03/12 06:59:06;;;;;;;29.5;15.8;;;;;;;7.41;50.44043;940.1874;;;;
2022/03/12 07:01:31;;;;;;;31.1;18.3;;;;;;;7.16;51.74805;940.1767;;;;
2022/03/12 07:03:56;;;;;;;26.9;16.2;;;;;;;6.87;51.56543;940.199;;;;
2022/03/12 07:06:21;;;;;;;29.1;16.3;;;;;;;7.28;49.73438;940.1974;;;;
2022/03/12 07:08:46;;;;;;;30.6;18.8;;;;;;;7.48;49.22461;940.2525;;;;
2022/03/12 07:11:13;;;;;;;31.5;18.3;;;;;;;7.44;47.95117;940.2214;;;;
2022/03/12 07:13:36;;;;;;;28.3;18.1;;;;;;;7.41;48.00293;940.2314;;;;
2022/03/12 07:16:02;;;;;;;28.9;17.6;;;;;;;7.44;48.09766;940.2181;;;;
2022/03/12 07:18:26;;;;;;;29.1;17.6;;;;;;;7.49;49.83789;940.1306;;;;
2022/03/12 07:20:52;;;;;;;27.9;16.5;;;;;;;7.53;46.91699;940.1744;;;;
2022/03/12 07:23:17;;;;;;;26.6;16.9;;;;;;;7.63;48.73242;940.1375;;;;
2022/03/12 07:25:42;;;;;;;27.6;16.7;;;;;;;7.74;46.93945;940.2239;;;;
2022/03/12 07:28:10;;;;;;;31.7;17.5;;;;;;;7.87;46.98926;940.1639;;;;
2022/03/12 07:30:32;;;;;;;31.9;16.6;;;;;;;7.57;48.66797;940.1627;;;;
2022/03/12 07:32:57;;;;;;;30.1;16.8;;;;;;;7.05;50.77246;940.2206;;;;
2022/03/12 07:35:22;;;;;;;35.2;22.1;;;;;;;6.71;52.35059;940.2468;;;;
2022/03/12 07:37:49;;;;;;;42.7;23.1;;;;;;;6.69;53.55859;940.2296;;;;
2022/03/12 07:40:13;;;;;;;37.5;23.5;;;;;;;7.04;52.92285;940.1799;;;;
2022/03/12 07:42:38;;;;;;;41.7;22.6;;;;;;;7.25;52.41699;940.2229;;;;
2022/03/12 07:45:03;;;;;;;42.5;23;;;;;;;7.6;51.42773;940.2554;;;;
2022/03/12 07:47:28;;;;;;;33.4;21.6;;;;;;;8.19;49.29492;940.1458;;;;
2022/03/12 07:49:53;;;;;;;35.7;20;;;;;;;8.34;47.54004;940.1836;;;;
2022/03/12 07:52:18;;;;;;;30.1;19.6;;;;;;;9.1;45.26758;940.2112;;;;
2022/03/12 07:54:43;;;;;;;30.7;20;;;;;;;9.48;43.45215;940.1055;;;;
2022/03/12 07:57:08;;;;;;;28.8;19.1;;;;;;;9.75;42.39551;940.1728;;;;
2022/03/12 07:59:34;;;;;;;28.8;17.9;;;;;;;9.99;41.22266;940.1108;;;;
2022/03/12 08:01:59;;;;;;;31.3;17.6;;;;;;;10.19;41.04785;940.1107;;;;
2022/03/12 08:04:24;;;;;;;28.5;18;;;;;;;10.67;39.6084;940.1761;;;;
2022/03/12 08:06:50;;;;;;;26;16.8;;;;;;;11.58;37.89453;940.1602;;;;
2022/03/12 08:09:14;;;;;;;26.1;16.9;;;;;;;12.29;35.40039;940.0247;;;;
2022/03/12 08:11:39;;;;;;;36;21.7;;;;;;;13.73;34.50586;939.9719;;;;
2022/03/12 08:14:07;;;;;;;31.1;19.4;;;;;;;15.76;31.99707;939.9554;;;;
2022/03/12 08:16:30;;;;;;;26.4;15.8;;;;;;;15.7;30.00586;939.9174;;;;
2022/03/12 08:18:55;;;;;;;25.3;15.5;;;;;;;14.17;30.69531;939.9113;;;;
2022/03/12 08:21:20;;;;;;;23.8;15.3;;;;;;;15.28;30.03418;939.8688;;;;
2022/03/12 08:23:45;;;;;;;25.9;15.7;;;;;;;16.06;28.44629;939.8114;;;;
2022/03/12 08:26:10;;;;;;;21.5;15.1;;;;;;;14.94;29.2959;939.7755;;;;
2022/03/12 08:28:36;;;;;;;20.6;14.2;;;;;;;16.95;27.69238;939.6881;;;;
2022/03/12 08:31:00;;;;;;;21.6;14.9;;;;;;;15.26;28.04785;939.7366;;;;
2022/03/12 08:33:25;;;;;;;22.1;14;;;;;;;15.19;28.32031;939.7823;;;;
2022/03/12 08:35:51;;;;;;;21.7;14.5;;;;;;;14.83;28.80469;939.7086;;;;
2022/03/12 08:38:15;;;;;;;21.7;14.7;;;;;;;15.1;28.55566;939.633;;;;
2022/03/12 08:40:41;;;;;;;22.3;14.9;;;;;;;15.69;27.37012;939.6686;;;;
2022/03/12 08:43:06;;;;;;;24;14.3;;;;;;;16.16;27.50391;939.5952;;;;
2022/03/12 08:45:31;;;;;;;22.2;15.3;;;;;;;15.57;27.89355;939.6119;;;;
2022/03/12 08:47:56;;;;;;;23.6;15.1;;;;;;;15.68;28.00488;939.6117;;;;
2022/03/12 08:50:22;;;;;;;21.5;14.5;;;;;;;18.06;25.00977;939.5623;;;;
2022/03/12 08:52:47;;;;;;;22.7;13.9;;;;;;;18.42;25.18164;939.4734;;;;
2022/03/12 08:55:12;;;;;;;24.9;14.4;;;;;;;19.76;23.22852;939.5667;;;;
2022/03/12 08:57:37;;;;;;;23.7;13.6;;;;;;;19.83;22.82422;939.5064;;;;
2022/03/12 09:00:05;;;;;;;20.7;13.6;;;;;;;19.43;23.1416;939.5075;;;;
2022/03/12 09:02:28;;;;;;;23.6;14.6;;;;;;;21.51;21.59961;939.4169;;;;
2022/03/12 09:04:52;;;;;;;22.1;13.5;;;;;;;20.92;22.0625;939.3466;;;;
2022/03/12 09:07:17;;;;;;;19.6;13.4;;;;;;;19.96;22.17773;939.4207;;;;
2022/03/12 09:09:43;;;;;;;19.9;12.6;;;;;;;21.69;21.09375;939.3733;;;;
2022/03/12 09:12:08;;;;;;;20.2;13.1;;;;;;;23.57;19.73535;939.4423;;;;
2022/03/12 09:14:34;;;;;;;22;12.5;;;;;;;21.45;20.08691;939.3734;;;;
2022/03/12 09:16:58;;;;;;;21.8;13.3;;;;;;;22.69;20.28418;939.3439;;;;
2022/03/12 09:19:23;;;;;;;18.3;12.1;;;;;;;23.88;18.87891;939.3192;;;;
2022/03/12 09:21:48;;;;;;;18.5;12.9;;;;;;;24.25;18.70605;939.2859;;;;
2022/03/12 09:24:13;;;;;;;18.3;12.8;;;;;;;25.56;17.11816;939.2723;;;;
2022/03/12 09:26:39;;;;;;;17.8;12.5;;;;;;;25.68;16.88672;939.2687;;;;
2022/03/12 09:29:04;;;;;;;18.3;12.7;;;;;;;22.77;18.56152;939.2955;;;;
2022/03/12 09:31:29;;;;;;;18.8;12.6;;;;;;;22.61;19.18848;939.2395;;;;
2022/03/12 09:33:54;;;;;;;20;12.6;;;;;;;19.22;21.93066;939.2622;;;;
2022/03/12 09:36:19;;;;;;;17.8;12.4;;;;;;;20.05;22.54395;939.1487;;;;
2022/03/12 09:38:44;;;;;;;19.4;11.9;;;;;;;22.4;20.03613;939.145;;;;
2022/03/12 09:41:09;;;;;;;18.5;12.7;;;;;;;23.06;19.10254;939.1511;;;;
2022/03/12 09:43:35;;;;;;;19.9;12.9;;;;;;;24.34;18.32031;939.0535;;;;
2022/03/12 09:46:00;;;;;;;17.8;12.2;;;;;;;23.93;18.06836;939.0916;;;;
2022/03/12 09:48:24;;;;;;;19.4;12.5;;;;;;;19.95;20.34473;939.1365;;;;
2022/03/12 09:50:50;;;;;;;17.7;11.8;;;;;;;19.64;21.38086;939.1187;;;;
2022/03/12 09:53:15;;;;;;;17.2;11.6;;;;;;;20.94;20.73047;939.0148;;;;
2022/03/12 09:55:40;;;;;;;20.1;12.3;;;;;;;20.55;21.13184;939.0125;;;;
2022/03/12 09:58:05;;;;;;;17.6;11.3;;;;;;;21;20.23047;938.9435;;;;
2022/03/12 10:00:30;;;;;;;19.8;11.9;;;;;;;21.04;20.99219;938.9061;;;;
2022/03/12 10:02:55;;;;;;;19;12.2;;;;;;;19.86;22.13672;938.9263;;;;
2022/03/12 10:05:20;;;;;;;19.7;11.7;;;;;;;21.31;20.23242;938.8331;;;;
2022/03/12 10:07:45;;;;;;;21.1;12.3;;;;;;;20.2;21.39551;938.8619;;;;
2022/03/12 10:10:11;;;;;;;18.8;11.8;;;;;;;21.19;20.70703;938.9106;;;;
2022/03/12 10:12:36;;;;;;;17.7;11.3;;;;;;;20.96;20.76563;938.8945;;;;
2022/03/12 10:15:01;;;;;;;17.2;10.8;;;;;;;20.64;21.37012;938.8906;;;;
2022/03/12 10:17:26;;;;;;;16.2;10.8;;;;;;;20.56;20.79395;938.8261;;;;
2022/03/12 10:19:51;;;;;;;17.8;11.5;;;;;;;21.96;19.125;938.8373;;;;
2022/03/12 10:22:16;;;;;;;18.2;11.8;;;;;;;22.55;18.70508;938.8259;;;;
2022/03/12 10:24:41;;;;;;;20.1;11.8;;;;;;;22.19;19.33496;938.7935;;;;
2022/03/12 10:27:07;;;;;;;16.3;11;;;;;;;22.75;18.7373;938.7782;;;;
2022/03/12 10:29:33;;;;;;;17.8;11;;;;;;;22.75;18.70215;938.7166;;;;
2022/03/12 10:31:57;;;;;;;15.5;10.9;;;;;;;21.84;19.90527;938.6297;;;;
2022/03/12 10:34:23;;;;;;;18.7;11.4;;;;;;;21.06;19.91699;938.5988;;;;
2022/03/12 10:36:47;;;;;;;18;11.8;;;;;;;19.63;21.55469;938.6124;;;;
2022/03/12 10:39:12;;;;;;;19.1;11.8;;;;;;;20.06;21.03906;938.5583;;;;
2022/03/12 10:41:38;;;;;;;18.3;12;;;;;;;20.21;21.47852;938.4766;;;;
2022/03/12 10:44:02;;;;;;;20.5;11.7;;;;;;;20.26;21.36328;938.4651;;;;
2022/03/12 10:46:28;;;;;;;19.8;12.5;;;;;;;20.15;20.75195;938.3781;;;;
2022/03/12 10:48:56;;;;;;;20.7;12.1;;;;;;;21;21.49316;938.3483;;;;
2022/03/12 10:51:18;;;;;;;20.3;12.3;;;;;;;20.93;20.70605;938.3303;;;;
2022/03/12 10:53:44;;;;;;;17.5;11.4;;;;;;;20.6;21.04102;938.3065;;;;
2022/03/12 10:56:08;;;;;;;25;13.3;;;;;;;19.59;22.1709;938.3142;;;;
2022/03/12 10:58:33;;;;;;;19;12;;;;;;;20;21.31641;938.3065;;;;
2022/03/12 11:00:59;;;;;;;20;12.5;;;;;;;20.29;21.07324;938.2823;;;;
2022/03/12 11:03:23;;;;;;;17.2;11;;;;;;;20.9;21.11426;938.2906;;;;
2022/03/12 11:05:49;;;;;;;18;11.7;;;;;;;20.49;21.56152;938.3063;;;;
2022/03/12 11:08:15;;;;;;;19.5;12.1;;;;;;;21.52;20.21875;938.2555;;;;
2022/03/12 11:10:40;;;;;;;17.6;11.7;;;;;;;22.08;20.20898;938.2572;;;;
2022/03/12 11:13:04;;;;;;;18;11.7;;;;;;;22.56;19.35059;938.1925;;;;
2022/03/12 11:15:32;;;;;;;18.7;12.2;;;;;;;22.72;18.84082;938.1959;;;;
2022/03/12 11:17:54;;;;;;;21;11.7;;;;;;;23.02;18.90137;938.1613;;;;
2022/03/12 11:20:21;;;;;;;20.2;12.5;;;;;;;22.57;19.31543;938.0981;;;;
2022/03/12 11:22:45;;;;;;;18.7;12;;;;;;;22.33;19.7627;938.1819;;;;
2022/03/12 11:25:11;;;;;;;18.3;12;;;;;;;22.38;20.15234;938.1841;;;;
2022/03/12 11:27:35;;;;;;;18.4;12.2;;;;;;;22.53;19.7832;938.111;;;;
2022/03/12 11:30:00;;;;;;;18.6;12.2;;;;;;;22.5;20.27539;938.0672;;;;
2022/03/12 11:32:26;;;;;;;16.1;11.7;;;;;;;23.52;19.04004;938.0698;;;;
2022/03/12 11:34:50;;;;;;;19.3;11.8;;;;;;;24.97;17.4375;938.0313;;;;
2022/03/12 11:37:15;;;;;;;19.6;12.7;;;;;;;24.09;18.55762;938.0449;;;;
2022/03/12 11:39:41;;;;;;;18.3;11.1;;;;;;;25.5;17.09277;938.0168;;;;
2022/03/12 11:42:06;;;;;;;20.1;12.6;;;;;;;26.47;16.27734;938.0441;;;;
2022/03/12 11:44:32;;;;;;;18;11.8;;;;;;;27.77;15.50488;937.967;;;;
2022/03/12 11:46:56;;;;;;;18.1;11.7;;;;;;;28.45;14.50586;937.9717;;;;
2022/03/12 11:49:22;;;;;;;16.4;11.3;;;;;;;29.18;14.33887;937.8557;;;;
2022/03/12 11:51:47;;;;;;;16.8;12.2;;;;;;;28.09;14.92188;937.9149;;;;
2022/03/12 11:54:11;;;;;;;18.4;11.4;;;;;;;27.82;15.31738;937.8718;;;;
2022/03/12 11:56:38;;;;;;;17.6;11.7;;;;;;;28.62;14.52344;937.8206;;;;
2022/03/12 11:59:01;;;;;;;18.1;11.4;;;;;;;29.34;14.27246;937.7773;;;;
2022/03/12 12:01:26;;;;;;;16.2;11.4;;;;;;;30.16;13.31934;937.7213;;;;
2022/03/12 12:03:53;;;;;;;16.2;11.2;;;;;;;29.11;14.49121;937.7463;;;;
2022/03/12 12:06:17;;;;;;;16.1;11.2;;;;;;;27.45;15.03125;937.7299;;;;
2022/03/12 12:08:43;;;;;;;19;12.3;;;;;;;27.34;15.60938;937.6824;;;;
2022/03/12 12:11:07;;;;;;;15.2;10.8;;;;;;;29.5;13.86035;937.6379;;;;
2022/03/12 12:13:33;;;;;;;17.6;11.4;;;;;;;30.75;12.81152;937.6355;;;;
2022/03/12 12:15:58;;;;;;;16.7;11.7;;;;;;;31.55;12.43945;937.6153;;;;
2022/03/12 12:18:23;;;;;;;16.6;11.3;;;;;;;32.13;12.10742;937.584;;;;
2022/03/12 12:20:47;;;;;;;15.3;11.2;;;;;;;31.37;12.35059;937.5247;;;;
2022/03/12 12:23:13;;;;;;;16.5;11.6;;;;;;;31.14;13.13379;937.4903;;;;
2022/03/12 12:25:38;;;;;;;16.9;11.9;;;;;;;30.5;12.86426;937.4688;;;;
2022/03/12 12:28:03;;;;;;;16.9;11.1;;;;;;;29.01;14.45313;937.427;;;;
2022/03/12 12:30:28;;;;;;;17.4;11;;;;;;;27.92;15.29688;937.4551;;;;
2022/03/12 12:32:53;;;;;;;15.1;10.5;;;;;;;28.01;14.56348;937.4595;;;;
2022/03/12 12:35:19;;;;;;;15.2;10.8;;;;;;;27.93;14.88184;937.43;;;;
2022/03/12 12:37:44;;;;;;;16.8;10.8;;;;;;;30.51;12.99609;937.3875;;;;
2022/03/12 12:40:09;;;;;;;16.9;11;;;;;;;31.02;12.50781;937.3267;;;;
2022/03/12 12:42:34;;;;;;;15.4;10.2;;;;;;;31.1;12.52246;937.2996;;;;
2022/03/12 12:44:59;;;;;;;16.6;10.9;;;;;;;31.4;11.93164;937.2864;;;;
2022/03/12 12:47:24;;;;;;;15.8;10.4;;;;;;;32.09;11.96191;937.1993;;;;
2022/03/12 12:49:49;;;;;;;15.6;11;;;;;;;30.35;13.03906;937.1563;;;;
2022/03/12 12:52:14;;;;;;;16.4;11.4;;;;;;;31.47;12.19727;937.1017;;;;
2022/03/12 12:54:39;;;;;;;16.2;11.1;;;;;;;31.2;12.56152;937.1328;;;;
2022/03/12 12:57:04;;;;;;;16.5;11;;;;;;;30.62;12.46094;937.1008;;;;
2022/03/12 12:59:29;;;;;;;21.6;11.5;;;;;;;31.58;12.30762;936.991;;;;
2022/03/12 13:01:54;;;;;;;15.3;10.9;;;;;;;29;13.86914;936.9734;;;;
2022/03/12 13:04:20;;;;;;;16.9;11.2;;;;;;;30.2;13.17773;936.9766;;;;
2022/03/12 13:06:45;;;;;;;15.8;10.1;;;;;;;30.36;12.91992;936.96;;;;
2022/03/12 13:09:10;;;;;;;17.2;10.5;;;;;;;31.17;12.29688;936.9366;;;;
2022/03/12 13:11:35;;;;;;;15.6;11;;;;;;;31.95;11.83887;936.8783;;;;
2022/03/12 13:14:00;;;;;;;16;10.9;;;;;;;31.29;12.30078;936.8492;;;;
2022/03/12 13:16:25;;;;;;;15.5;10.7;;;;;;;32.09;11.96191;936.8364;;;;
2022/03/12 13:18:50;;;;;;;15.6;10.9;;;;;;;32.16;11.47266;936.8764;;;;
2022/03/12 13:21:15;;;;;;;16.9;11.5;;;;;;;32.8;11.36816;936.8814;;;;
2022/03/12 13:23:41;;;;;;;17.1;11.4;;;;;;;32.59;11.7832;936.8897;;;;
2022/03/12 13:26:06;;;;;;;16.8;11.5;;;;;;;31.4;12.24316;936.8173;;;;
2022/03/12 13:28:31;;;;;;;17.7;11.3;;;;;;;30.79;12.51367;936.8063;;;;
2022/03/12 13:30:56;;;;;;;17;11.2;;;;;;;28.62;13.85742;936.7693;;;;
2022/03/12 13:33:21;;;;;;;15.1;10.6;;;;;;;28.77;14.14746;936.7894;;;;
2022/03/12 13:35:46;;;;;;;17;11.4;;;;;;;27.14;14.3457;936.767;;;;
2022/03/12 13:38:11;;;;;;;18.1;11.5;;;;;;;25.9;15.39355;936.7872;;;;
2022/03/12 13:40:37;;;;;;;17.6;10.1;;;;;;;27.72;14.45898;936.7821;;;;
2022/03/12 13:43:02;;;;;;;16;10.5;;;;;;;29.02;13.47656;936.7206;;;;
2022/03/12 13:45:29;;;;;;;17.1;11.2;;;;;;;29.32;13.56934;936.6219;;;;
2022/03/12 13:47:53;;;;;;;17.1;11;;;;;;;29.5;13.6582;936.6494;;;;
2022/03/12 13:50:17;;;;;;;17.5;10.4;;;;;;;29;13.71387;936.6353;;;;
2022/03/12 13:52:42;;;;;;;16.8;10.5;;;;;;;28.52;14.12793;936.6223;;;;
2022/03/12 13:55:07;;;;;;;15.9;10.1;;;;;;;27.84;14.60547;936.649;;;;
2022/03/12 13:57:35;;;;;;;16.3;11.7;;;;;;;27.44;15.24512;936.5026;;;;